createdAt,value
2022-09-14T00:04:13.485Z,15.99
2022-09-14T00:09:21.109Z,15.99
2022-09-14T00:14:28.221Z,16.04
2022-09-14T00:19:32.552Z,16.13
2022-09-14T00:24:37.613Z,16.19
2022-09-14T00:29:43.477Z,16.03
2022-09-14T00:34:47.966Z,16.04
2022-09-14T00:39:52.893Z,15.92
2022-09-14T00:45:06.105Z,15.90
2022-09-14T00:50:12.500Z,15.94
2022-09-14T00:55:20.794Z,15.92
2022-09-14T01:00:29.549Z,15.85
2022-09-14T01:05:49.677Z,15.82
2022-09-14T01:11:18.537Z,15.75
2022-09-14T01:16:33.020Z,15.79
2022-09-14T01:21:40.099Z,15.88
2022-09-14T01:27:26.934Z,15.68
2022-09-14T01:32:37.611Z,15.61
2022-09-14T01:37:49.242Z,15.59
2022-09-14T01:42:56.933Z,15.55
2022-09-14T01:48:06.554Z,15.75
2022-09-14T01:53:15.430Z,15.56
2022-09-14T01:58:28.570Z,15.64
2022-09-14T02:03:46.009Z,15.64
2022-09-14T02:08:51.919Z,15.48
2022-09-14T02:13:56.551Z,15.43
2022-09-14T02:19:02.921Z,15.34
2022-09-14T02:24:08.470Z,15.22
2022-09-14T02:29:13.265Z,15.08
2022-09-14T02:34:35.595Z,15.03
2022-09-14T02:39:48.252Z,15.11
2022-09-14T02:45:02.734Z,14.87
2022-09-14T02:50:20.715Z,14.86
2022-09-14T02:55:29.812Z,14.81
2022-09-14T03:00:36.942Z,14.81
2022-09-14T03:05:43.469Z,14.90
2022-09-14T03:10:49.025Z,14.73
2022-09-14T03:15:54.207Z,14.68
2022-09-14T03:21:07.473Z,14.78
2022-09-14T03:26:13.988Z,14.65
2022-09-14T03:31:19.327Z,14.55
2022-09-14T03:36:26.972Z,14.58
2022-09-14T03:41:31.314Z,14.67
2022-09-14T03:46:36.500Z,14.67
2022-09-14T03:51:42.769Z,14.67
2022-09-14T03:56:48.097Z,14.52
2022-09-14T04:01:52.772Z,14.60
2022-09-14T04:06:58.889Z,14.67
2022-09-14T04:12:03.915Z,14.62
2022-09-14T04:17:09.235Z,14.41
2022-09-14T04:22:16.256Z,14.54
2022-09-14T04:27:20.446Z,14.49
2022-09-14T04:32:24.762Z,14.42
2022-09-14T04:37:33.436Z,14.44
2022-09-14T04:42:38.370Z,14.45
2022-09-14T04:47:42.621Z,14.52
2022-09-14T04:52:51.282Z,14.57
2022-09-14T04:57:56.240Z,14.61
2022-09-14T05:03:01.467Z,14.55
2022-09-14T05:08:07.479Z,14.53
2022-09-14T05:13:11.881Z,14.35
2022-09-14T05:18:16.307Z,14.56
2022-09-14T05:23:22.597Z,14.59
2022-09-14T05:28:27.887Z,14.83
2022-09-14T05:33:32.163Z,15.20
2022-09-14T05:38:40.576Z,15.49
2022-09-14T05:43:45.660Z,15.50
2022-09-14T05:48:52.178Z,15.59
2022-09-14T05:54:00.375Z,15.74
2022-09-14T05:59:05.184Z,16.09
2022-09-14T06:04:12.878Z,16.38
2022-09-14T06:09:19.128Z,16.51
2022-09-14T06:14:23.223Z,16.76
2022-09-14T06:19:28.114Z,17.27
2022-09-14T06:24:34.124Z,17.11
2022-09-14T06:29:38.742Z,17.03
2022-09-14T06:34:42.902Z,17.22
2022-09-14T06:39:49.317Z,18.06
2022-09-14T06:44:53.802Z,17.80
2022-09-14T06:49:59.352Z,17.67
2022-09-14T06:55:07.311Z,18.12
2022-09-14T07:00:12.921Z,18.24
2022-09-14T07:05:20.715Z,18.62
2022-09-14T07:10:28.814Z,18.70
2022-09-14T07:15:33.635Z,19.70
2022-09-14T07:20:37.862Z,19.04
2022-09-14T07:25:43.988Z,19.48
2022-09-14T07:30:48.947Z,19.77
2022-09-14T07:35:54.168Z,19.91
2022-09-14T07:41:01.930Z,19.73
2022-09-14T07:46:07.611Z,19.53
2022-09-14T07:51:13.260Z,19.31
2022-09-14T07:56:19.167Z,18.89
2022-09-14T08:01:23.757Z,19.57
2022-09-14T08:06:29.503Z,20.01
2022-09-14T08:11:36.071Z,19.90
2022-09-14T08:16:42.108Z,19.80
2022-09-14T08:21:48.280Z,20.27
2022-09-14T08:26:55.449Z,20.16
2022-09-14T08:32:00.004Z,20.03
2022-09-14T08:37:04.579Z,19.15
2022-09-14T08:42:17.981Z,19.77
2022-09-14T08:47:28.638Z,20.82
2022-09-14T08:52:36.851Z,21.16
2022-09-14T08:57:47.075Z,20.52
2022-09-14T09:03:26.574Z,20.85
2022-09-14T09:08:39.849Z,21.65
2022-09-14T09:13:48.837Z,22.40
2022-09-14T09:18:59.187Z,21.47
2022-09-14T09:24:17.681Z,20.59
2022-09-14T09:29:23.689Z,20.69
2022-09-14T09:34:46.608Z,20.19
2022-09-14T09:40:33.909Z,20.17
2022-09-14T09:45:59.994Z,20.26
2022-09-14T09:51:12.693Z,21.14
2022-09-14T09:56:24.987Z,22.07
2022-09-14T10:01:33.465Z,21.86
2022-09-14T10:06:46.175Z,21.77
2022-09-14T10:11:59.804Z,21.89
2022-09-14T10:17:19.916Z,21.42
2022-09-14T10:22:29.871Z,21.51
2022-09-14T10:27:39.918Z,20.38
2022-09-14T10:32:52.865Z,20.24
2022-09-14T10:38:17.291Z,19.81
2022-09-14T10:43:36.895Z,19.50
2022-09-14T10:48:59.876Z,19.40
2022-09-14T10:54:18.756Z,18.98
2022-09-14T10:59:34.290Z,18.58
2022-09-14T11:04:57.406Z,18.79
2022-09-14T11:10:09.439Z,18.57
2022-09-14T11:15:26.107Z,18.40
2022-09-14T11:20:42.560Z,18.29
2022-09-14T11:25:54.293Z,17.97
2022-09-14T11:31:05.007Z,17.64
2022-09-14T11:36:20.197Z,17.44
2022-09-14T11:41:30.830Z,17.19
2022-09-14T11:46:38.323Z,16.99
2022-09-14T11:51:48.864Z,16.74
2022-09-14T11:56:58.844Z,16.32
2022-09-14T12:02:41.627Z,16.25
2022-09-14T12:08:04.616Z,15.99
2022-09-14T12:13:21.998Z,15.83
2022-09-14T12:18:29.481Z,15.70
2022-09-14T12:23:44.810Z,15.55
2022-09-14T12:28:51.679Z,15.49
2022-09-14T12:34:30.676Z,15.31
2022-09-14T12:39:38.443Z,15.29
2022-09-14T12:44:44.449Z,15.29
2022-09-14T12:49:50.106Z,15.30
2022-09-14T12:55:12.779Z,15.39
2022-09-14T13:00:20.359Z,15.35
2022-09-14T13:05:27.641Z,15.32
2022-09-14T13:10:36.704Z,15.44
2022-09-14T13:15:51.915Z,15.23
2022-09-14T13:20:58.073Z,15.56
2022-09-14T13:26:11.619Z,15.27
2022-09-14T13:31:21.683Z,15.39
2022-09-14T13:36:42.106Z,15.67
2022-09-14T13:41:47.944Z,15.82
2022-09-14T13:46:53.487Z,15.75
2022-09-14T13:52:20.392Z,15.70
2022-09-14T13:57:27.027Z,15.86
2022-09-14T14:02:34.348Z,16.43
2022-09-14T14:07:39.296Z,17.71
2022-09-14T14:12:50.109Z,17.22
2022-09-14T14:17:55.915Z,16.97
2022-09-14T14:23:04.366Z,16.78
2022-09-14T14:28:18.069Z,16.55
2022-09-14T14:33:23.578Z,16.50
2022-09-14T14:38:28.561Z,16.59
2022-09-14T14:43:34.934Z,16.65
2022-09-14T14:48:39.291Z,16.42
2022-09-14T14:53:44.014Z,16.40
2022-09-14T14:58:50.584Z,16.36
2022-09-14T15:03:55.010Z,16.26
2022-09-14T15:08:59.388Z,16.53
2022-09-14T15:14:05.760Z,16.67
2022-09-14T15:19:11.283Z,16.60
2022-09-14T15:24:15.476Z,16.63
2022-09-14T15:29:21.359Z,16.44
2022-09-14T15:34:26.457Z,16.51
2022-09-14T15:39:33.484Z,16.69
2022-09-14T15:44:39.753Z,16.66
2022-09-14T15:49:44.804Z,16.81
2022-09-14T15:54:49.626Z,16.42
2022-09-14T15:59:56.736Z,16.38
2022-09-14T16:05:00.872Z,16.40
2022-09-14T16:10:05.464Z,16.31
2022-09-14T16:15:12.683Z,16.35
2022-09-14T16:20:17.647Z,16.40
2022-09-14T16:25:21.996Z,16.05
2022-09-14T16:30:28.164Z,15.94
2022-09-14T16:35:32.497Z,15.87
2022-09-14T16:40:41.029Z,15.88
2022-09-14T16:45:50.590Z,15.92
2022-09-14T16:50:54.806Z,15.86
2022-09-14T16:56:04.830Z,15.84
2022-09-14T17:01:13.050Z,15.70
2022-09-14T17:06:19.939Z,15.68
2022-09-14T17:11:24.396Z,15.59
2022-09-14T17:16:31.033Z,15.43
2022-09-14T17:21:39.402Z,15.40
2022-09-14T17:26:44.583Z,15.44
2022-09-14T17:31:51.138Z,15.42
2022-09-14T17:36:55.516Z,15.45
2022-09-14T17:41:59.920Z,15.18
2022-09-14T17:47:06.566Z,15.00
2022-09-14T17:52:11.038Z,14.92
2022-09-14T17:57:15.831Z,14.82
2022-09-14T18:02:22.165Z,14.87
2022-09-14T18:07:27.348Z,14.93
2022-09-14T18:12:36.647Z,14.77
2022-09-14T18:17:43.942Z,14.77
2022-09-14T18:22:48.598Z,14.91
2022-09-14T18:27:52.683Z,14.94
2022-09-14T18:32:58.684Z,14.79
2022-09-14T18:38:03.098Z,14.91
2022-09-14T18:43:07.628Z,14.84
2022-09-14T18:48:13.787Z,14.93
2022-09-14T18:53:17.921Z,14.90
2022-09-14T18:58:22.164Z,15.03
2022-09-14T19:03:29.615Z,14.91
2022-09-14T19:08:33.618Z,14.87
2022-09-14T19:13:38.324Z,14.90
2022-09-14T19:18:45.946Z,14.90
2022-09-14T19:23:51.579Z,14.94
2022-09-14T19:28:56.815Z,14.95
2022-09-14T19:34:03.854Z,15.01
2022-09-14T19:39:08.535Z,15.20
2022-09-14T19:44:13.395Z,15.27
2022-09-14T19:49:22.565Z,15.19
2022-09-14T19:54:27.074Z,15.34
2022-09-14T19:59:31.696Z,15.17
2022-09-14T20:04:37.563Z,15.09
2022-09-14T20:09:41.783Z,15.06
2022-09-14T20:14:46.695Z,15.25
2022-09-14T20:19:52.869Z,15.23
2022-09-14T20:24:57.477Z,15.17
2022-09-14T20:30:01.981Z,15.25
2022-09-14T20:35:10.007Z,15.17
2022-09-14T20:40:14.920Z,15.20
2022-09-14T20:45:19.525Z,15.18
2022-09-14T20:50:25.684Z,15.22
2022-09-14T20:55:30.555Z,15.02
2022-09-14T21:00:34.921Z,14.96
2022-09-14T21:05:41.906Z,15.04
2022-09-14T21:10:46.907Z,15.05
2022-09-14T21:15:51.733Z,15.02
2022-09-14T21:21:01.112Z,14.96
2022-09-14T21:26:09.163Z,15.16
2022-09-14T21:31:15.422Z,15.16
2022-09-14T21:36:23.872Z,15.09
2022-09-14T21:41:30.466Z,15.16
2022-09-14T21:46:35.530Z,15.16
2022-09-14T21:51:41.917Z,15.25
2022-09-14T21:56:47.864Z,15.24
2022-09-14T22:01:52.962Z,15.25
2022-09-14T22:06:59.767Z,15.22
2022-09-14T22:12:05.057Z,15.29
2022-09-14T22:17:09.838Z,15.26
2022-09-14T22:22:15.928Z,15.25
2022-09-14T22:27:20.372Z,15.35
2022-09-14T22:32:24.919Z,15.39
2022-09-14T22:37:30.480Z,15.49
2022-09-14T22:42:35.315Z,15.46
2022-09-14T22:47:39.561Z,15.57
2022-09-14T22:52:45.001Z,15.46
2022-09-14T22:57:49.998Z,15.44
2022-09-14T23:02:54.826Z,15.43
2022-09-14T23:08:01.514Z,15.40
2022-09-14T23:13:06.238Z,15.55
2022-09-14T23:18:11.248Z,15.30
2022-09-14T23:23:17.624Z,14.92
2022-09-14T23:28:21.832Z,14.91
2022-09-14T23:33:26.784Z,14.97
2022-09-14T23:38:35.649Z,15.13
2022-09-14T23:43:40.099Z,15.08
2022-09-14T23:48:45.201Z,15.17
2022-09-14T23:53:51.324Z,15.21
2022-09-14T23:58:55.628Z,15.34
